sensor_id;sensor_type;location;lat;lon;timestamp;pressure;altitude;pressure_sealevel;temperature;humidity
35129;BME280;21301;43.626;10.580;2024-03-08T00:01:14;101565.13;;;6.49;100.00
35129;BME280;21301;43.626;10.580;2024-03-08T00:03:42;101566.63;;;6.54;100.00
35129;BME280;21301;43.626;10.580;2024-03-08T00:06:08;101563.44;;;6.48;100.00
35129;BME280;21301;43.626;10.580;2024-03-08T00:08:34;101564.88;;;6.34;100.00
35129;BME280;21301;43.626;10.580;2024-03-08T00:11:01;101575.09;;;6.20;100.00
35129;BME280;21301;43.626;10.580;2024-03-08T00:13:27;101568.63;;;6.29;100.00
35129;BME280;21301;43.626;10.580;2024-03-08T00:15:54;101573.81;;;6.30;100.00
35129;BME280;21301;43.626;10.580;2024-03-08T00:18:21;101574.44;;;6.35;100.00
35129;BME280;21301;43.626;10.580;2024-03-08T00:20:50;101564.63;;;6.40;100.00
35129;BME280;21301;43.626;10.580;2024-03-08T00:23:16;101565.28;;;6.25;100.00
35129;BME280;21301;43.626;10.580;2024-03-08T00:25:42;101569.22;;;6.15;100.00
35129;BME280;21301;43.626;10.580;2024-03-08T00:28:08;101562.59;;;6.08;100.00
35129;BME280;21301;43.626;10.580;2024-03-08T00:30:34;101557.81;;;6.17;100.00
35129;BME280;21301;43.626;10.580;2024-03-08T00:33:00;101558.66;;;6.18;100.00
35129;BME280;21301;43.626;10.580;2024-03-08T00:35:26;101562.03;;;6.20;100.00
35129;BME280;21301;43.626;10.580;2024-03-08T00:37:51;101562.91;;;6.21;100.00
35129;BME280;21301;43.626;10.580;2024-03-08T00:40:17;101554.09;;;6.23;100.00
35129;BME280;21301;43.626;10.580;2024-03-08T00:42:43;101553.16;;;6.24;100.00
35129;BME280;21301;43.626;10.580;2024-03-08T00:45:10;101552.53;;;6.19;100.00
35129;BME280;21301;43.626;10.580;2024-03-08T00:47:36;101554.28;;;6.18;100.00
35129;BME280;21301;43.626;10.580;2024-03-08T00:50:02;101549.84;;;6.21;100.00
35129;BME280;21301;43.626;10.580;2024-03-08T00:52:31;101552.53;;;6.19;100.00
35129;BME280;21301;43.626;10.580;2024-03-08T00:54:57;101552.13;;;6.28;100.00
35129;BME280;21301;43.626;10.580;2024-03-08T00:57:23;101547.59;;;6.32;100.00
35129;BME280;21301;43.626;10.580;2024-03-08T00:59:49;101540.59;;;6.32;100.00
35129;BME280;21301;43.626;10.580;2024-03-08T01:02:15;101545.97;;;6.29;100.00
35129;BME280;21301;43.626;10.580;2024-03-08T01:04:44;101541.47;;;6.33;100.00
35129;BME280;21301;43.626;10.580;2024-03-08T01:07:10;101548.44;;;6.13;100.00
35129;BME280;21301;43.626;10.580;2024-03-08T01:09:36;101532.53;;;6.18;100.00
35129;BME280;21301;43.626;10.580;2024-03-08T01:12:02;101537.91;;;6.15;100.00
35129;BME280;21301;43.626;10.580;2024-03-08T01:14:27;101539.38;;;6.02;100.00
35129;BME280;21301;43.626;10.580;2024-03-08T01:16:56;101535.00;;;6.02;100.00
35129;BME280;21301;43.626;10.580;2024-03-08T01:19:23;101534.34;;;5.97;100.00
35129;BME280;21301;43.626;10.580;2024-03-08T01:21:49;101534.41;;;5.95;100.00
35129;BME280;21301;43.626;10.580;2024-03-08T01:24:15;101537.13;;;5.92;100.00
35129;BME280;21301;43.626;10.580;2024-03-08T01:26:41;101529.97;;;5.97;100.00
35129;BME280;21301;43.626;10.580;2024-03-08T01:29:06;101531.97;;;5.91;100.00
35129;BME280;21301;43.626;10.580;2024-03-08T01:31:33;101514.38;;;5.96;100.00
35129;BME280;21301;43.626;10.580;2024-03-08T01:33:59;101518.06;;;5.90;100.00
35129;BME280;21301;43.626;10.580;2024-03-08T01:36:25;101520.63;;;5.92;100.00
35129;BME280;21301;43.626;10.580;2024-03-08T01:38:52;101523.47;;;5.86;100.00
35129;BME280;21301;43.626;10.580;2024-03-08T01:41:18;101515.91;;;5.80;100.00
35129;BME280;21301;43.626;10.580;2024-03-08T01:43:48;101522.78;;;5.82;100.00
35129;BME280;21301;43.626;10.580;2024-03-08T01:46:19;101514.47;;;5.93;100.00
35129;BME280;21301;43.626;10.580;2024-03-08T01:48:48;101518.59;;;5.98;100.00
35129;BME280;21301;43.626;10.580;2024-03-08T01:51:14;101514.09;;;6.02;100.00
35129;BME280;21301;43.626;10.580;2024-03-08T01:53:42;101511.41;;;6.04;100.00
35129;BME280;21301;43.626;10.580;2024-03-08T01:56:12;101511.16;;;6.10;100.00
35129;BME280;21301;43.626;10.580;2024-03-08T01:58:41;101508.88;;;6.02;100.00
35129;BME280;21301;43.626;10.580;2024-03-08T02:01:13;101503.91;;;5.96;100.00
35129;BME280;21301;43.626;10.580;2024-03-08T02:03:47;101501.44;;;6.13;100.00
35129;BME280;21301;43.626;10.580;2024-03-08T02:06:12;101501.91;;;5.62;100.00
35129;BME280;21301;43.626;10.580;2024-03-08T02:08:42;101507.22;;;5.79;100.00
35129;BME280;21301;43.626;10.580;2024-03-08T02:11:12;101503.00;;;5.76;100.00
35129;BME280;21301;43.626;10.580;2024-03-08T02:13:39;101504.13;;;5.71;100.00
35129;BME280;21301;43.626;10.580;2024-03-08T02:16:05;101500.53;;;5.73;100.00
35129;BME280;21301;43.626;10.580;2024-03-08T02:18:33;101494.06;;;5.62;100.00
35129;BME280;21301;43.626;10.580;2024-03-08T02:21:06;101496.03;;;5.57;100.00
35129;BME280;21301;43.626;10.580;2024-03-08T02:23:33;101488.50;;;5.28;100.00
35129;BME280;21301;43.626;10.580;2024-03-08T02:26:00;101485.00;;;5.29;100.00
35129;BME280;21301;43.626;10.580;2024-03-08T02:28:26;101485.19;;;5.25;100.00
35129;BME280;21301;43.626;10.580;2024-03-08T02:30:52;101485.31;;;5.22;100.00
35129;BME280;21301;43.626;10.580;2024-03-08T02:33:22;101487.81;;;5.25;100.00
35129;BME280;21301;43.626;10.580;2024-03-08T02:35:49;101489.44;;;5.27;100.00
35129;BME280;21301;43.626;10.580;2024-03-08T02:38:20;101488.66;;;5.25;100.00
35129;BME280;21301;43.626;10.580;2024-03-08T02:40:50;101487.72;;;5.26;100.00
35129;BME280;21301;43.626;10.580;2024-03-08T02:43:19;101477.47;;;5.22;100.00
35129;BME280;21301;43.626;10.580;2024-03-08T02:45:47;101484.41;;;5.23;100.00
35129;BME280;21301;43.626;10.580;2024-03-08T02:48:14;101488.31;;;5.12;100.00
35129;BME280;21301;43.626;10.580;2024-03-08T02:50:42;101486.78;;;5.07;100.00
35129;BME280;21301;43.626;10.580;2024-03-08T02:53:11;101484.25;;;5.05;100.00
35129;BME280;21301;43.626;10.580;2024-03-08T02:55:39;101486.78;;;5.07;100.00
35129;BME280;21301;43.626;10.580;2024-03-08T02:58:07;101482.69;;;5.01;100.00
35129;BME280;21301;43.626;10.580;2024-03-08T03:00:37;101483.56;;;5.00;100.00
35129;BME280;21301;43.626;10.580;2024-03-08T03:03:04;101489.28;;;4.88;100.00
35129;BME280;21301;43.626;10.580;2024-03-08T03:05:32;101479.56;;;4.93;100.00
35129;BME280;21301;43.626;10.580;2024-03-08T03:07:59;101489.97;;;4.93;100.00
35129;BME280;21301;43.626;10.580;2024-03-08T03:10:25;101489.19;;;4.91;100.00
35129;BME280;21301;43.626;10.580;2024-03-08T03:12:51;101477.97;;;4.89;100.00
35129;BME280;21301;43.626;10.580;2024-03-08T03:15:18;101480.63;;;4.87;100.00
35129;BME280;21301;43.626;10.580;2024-03-08T03:17:51;101479.16;;;4.80;100.00
35129;BME280;21301;43.626;10.580;2024-03-08T03:20:19;101481.78;;;4.80;100.00
35129;BME280;21301;43.626;10.580;2024-03-08T03:23:06;101480.97;;;4.78;100.00
35129;BME280;21301;43.626;10.580;2024-03-08T03:25:34;101478.47;;;4.77;100.00
35129;BME280;21301;43.626;10.580;2024-03-08T03:28:01;101481.66;;;4.83;100.00
35129;BME280;21301;43.626;10.580;2024-03-08T03:30:28;101477.59;;;4.76;100.00
35129;BME280;21301;43.626;10.580;2024-03-08T03:33:01;101479.31;;;4.77;100.00
35129;BME280;21301;43.626;10.580;2024-03-08T03:35:28;101483.69;;;4.77;100.00
35129;BME280;21301;43.626;10.580;2024-03-08T03:37:54;101472.88;;;4.64;100.00
35129;BME280;21301;43.626;10.580;2024-03-08T03:40:34;101478.72;;;4.47;100.00
35129;BME280;21301;43.626;10.580;2024-03-08T03:43:01;101477.38;;;4.60;100.00
35129;BME280;21301;43.626;10.580;2024-03-08T03:45:31;101480.16;;;4.56;100.00
35129;BME280;21301;43.626;10.580;2024-03-08T03:48:06;101481.78;;;4.58;100.00
35129;BME280;21301;43.626;10.580;2024-03-08T03:50:32;101484.88;;;4.68;100.00
35129;BME280;21301;43.626;10.580;2024-03-08T03:53:00;101479.59;;;4.69;100.00
35129;BME280;21301;43.626;10.580;2024-03-08T03:55:26;101485.03;;;4.63;100.00
35129;BME280;21301;43.626;10.580;2024-03-08T03:57:52;101484.69;;;4.73;100.00
35129;BME280;21301;43.626;10.580;2024-03-08T04:00:18;101480.69;;;4.64;100.00
35129;BME280;21301;43.626;10.580;2024-03-08T04:02:44;101492.19;;;4.58;100.00
35129;BME280;21301;43.626;10.580;2024-03-08T04:05:10;101484.84;;;4.46;100.00
35129;BME280;21301;43.626;10.580;2024-03-08T04:07:38;101489.06;;;4.26;100.00
35129;BME280;21301;43.626;10.580;2024-03-08T04:10:05;101486.47;;;4.26;100.00
35129;BME280;21301;43.626;10.580;2024-03-08T04:12:35;101492.81;;;4.19;100.00
35129;BME280;21301;43.626;10.580;2024-03-08T04:15:01;101480.75;;;4.17;100.00
35129;BME280;21301;43.626;10.580;2024-03-08T04:17:28;101480.47;;;4.24;100.00
35129;BME280;21301;43.626;10.580;2024-03-08T04:19:54;101485.13;;;4.16;100.00
35129;BME280;21301;43.626;10.580;2024-03-08T04:22:20;101487.88;;;4.12;100.00
35129;BME280;21301;43.626;10.580;2024-03-08T04:24:47;101479.31;;;4.08;100.00
35129;BME280;21301;43.626;10.580;2024-03-08T04:27:14;101479.91;;;4.16;100.00
35129;BME280;21301;43.626;10.580;2024-03-08T04:29:40;101481.03;;;4.09;100.00
35129;BME280;21301;43.626;10.580;2024-03-08T04:32:08;101478.66;;;4.26;100.00
35129;BME280;21301;43.626;10.580;2024-03-08T04:34:35;101479.66;;;4.22;100.00
35129;BME280;21301;43.626;10.580;2024-03-08T04:37:02;101479.91;;;4.16;100.00
35129;BME280;21301;43.626;10.580;2024-03-08T04:39:31;101482.03;;;4.05;100.00
35129;BME280;21301;43.626;10.580;2024-03-08T04:42:00;101479.66;;;3.99;100.00
35129;BME280;21301;43.626;10.580;2024-03-08T04:44:30;101483.06;;;4.01;100.00
35129;BME280;21301;43.626;10.580;2024-03-08T04:46:57;101480.63;;;3.96;100.00
35129;BME280;21301;43.626;10.580;2024-03-08T04:49:23;101482.66;;;3.88;100.00
35129;BME280;21301;43.626;10.580;2024-03-08T04:51:50;101477.28;;;3.93;100.00
35129;BME280;21301;43.626;10.580;2024-03-08T04:54:16;101483.38;;;3.92;100.00
35129;BME280;21301;43.626;10.580;2024-03-08T04:56:42;101479.78;;;3.96;100.00
35129;BME280;21301;43.626;10.580;2024-03-08T04:59:11;101481.81;;;3.88;100.00
35129;BME280;21301;43.626;10.580;2024-03-08T05:01:37;101478.25;;;3.90;100.00
35129;BME280;21301;43.626;10.580;2024-03-08T05:04:04;101473.66;;;3.97;100.00
35129;BME280;21301;43.626;10.580;2024-03-08T05:06:30;101477.34;;;3.91;100.00
35129;BME280;21301;43.626;10.580;2024-03-08T05:08:56;101481.22;;;4.04;100.00
35129;BME280;21301;43.626;10.580;2024-03-08T05:11:22;101469.91;;;4.04;100.00
35129;BME280;21301;43.626;10.580;2024-03-08T05:13:47;101470.03;;;4.01;100.00
35129;BME280;21301;43.626;10.580;2024-03-08T05:16:14;101473.66;;;3.97;100.00
35129;BME280;21301;43.626;10.580;2024-03-08T05:18:41;101481.13;;;4.06;100.00
35129;BME280;21301;43.626;10.580;2024-03-08T05:21:07;101484.91;;;4.21;100.00
35129;BME280;21301;43.626;10.580;2024-03-08T05:23:35;101476.22;;;3.98;100.00
35129;BME280;21301;43.626;10.580;2024-03-08T05:26:01;101481.53;;;3.95;100.00
35129;BME280;21301;43.626;10.580;2024-03-08T05:28:27;101486.25;;;3.84;100.00
35129;BME280;21301;43.626;10.580;2024-03-08T05:30:53;101480.25;;;3.82;100.00
35129;BME280;21301;43.626;10.580;2024-03-08T05:33:22;101485.38;;;3.85;100.00
35129;BME280;21301;43.626;10.580;2024-03-08T05:35:49;101490.50;;;3.87;100.00
35129;BME280;21301;43.626;10.580;2024-03-08T05:38:15;101485.13;;;3.91;100.00
35129;BME280;21301;43.626;10.580;2024-03-08T05:40:41;101486.75;;;3.95;100.00
35129;BME280;21301;43.626;10.580;2024-03-08T05:43:09;101488.53;;;3.93;100.00
35129;BME280;21301;43.626;10.580;2024-03-08T05:45:34;101489.63;;;3.88;100.00
35129;BME280;21301;43.626;10.580;2024-03-08T05:48:00;101487.69;;;3.93;100.00
35129;BME280;21301;43.626;10.580;2024-03-08T05:50:26;101479.91;;;3.93;100.00
35129;BME280;21301;43.626;10.580;2024-03-08T05:52:52;101477.34;;;3.91;100.00
35129;BME280;21301;43.626;10.580;2024-03-08T05:55:18;101479.13;;;3.89;100.00
35129;BME280;21301;43.626;10.580;2024-03-08T05:57:45;101471.84;;;3.99;100.00
35129;BME280;21301;43.626;10.580;2024-03-08T06:00:11;101478.66;;;4.03;100.00
35129;BME280;21301;43.626;10.580;2024-03-08T06:02:39;101475.84;;;4.09;100.00
35129;BME280;21301;43.626;10.580;2024-03-08T06:05:12;101481.94;;;4.08;100.00
35129;BME280;21301;43.626;10.580;2024-03-08T06:07:38;101477.53;;;4.10;100.00
35129;BME280;21301;43.626;10.580;2024-03-08T06:10:09;101476.78;;;4.07;100.00
35129;BME280;21301;43.626;10.580;2024-03-08T06:12:36;101483.59;;;4.56;100.00
35129;BME280;21301;43.626;10.580;2024-03-08T06:15:09;101484.72;;;5.76;100.00
35129;BME280;21301;43.626;10.580;2024-03-08T06:17:37;101480.81;;;6.64;100.00
35129;BME280;21301;43.626;10.580;2024-03-08T06:20:06;101483.59;;;7.32;100.00
35129;BME280;21301;43.626;10.580;2024-03-08T06:22:40;101476.31;;;7.55;100.00
35129;BME280;21301;43.626;10.580;2024-03-08T06:25:08;101487.94;;;8.49;100.00
35129;BME280;21301;43.626;10.580;2024-03-08T06:27:40;101494.41;;;8.59;100.00
35129;BME280;21301;43.626;10.580;2024-03-08T06:30:09;101492.34;;;8.96;100.00
35129;BME280;21301;43.626;10.580;2024-03-08T06:32:36;101494.56;;;9.18;100.00
35129;BME280;21301;43.626;10.580;2024-03-08T06:35:04;101493.63;;;9.49;100.00
35129;BME280;21301;43.626;10.580;2024-03-08T06:37:34;101495.94;;;9.98;100.00
35129;BME280;21301;43.626;10.580;2024-03-08T06:40:00;101488.97;;;10.40;100.00
35129;BME280;21301;43.626;10.580;2024-03-08T06:42:27;101485.00;;;10.62;100.00
35129;BME280;21301;43.626;10.580;2024-03-08T06:44:54;101488.97;;;11.09;100.00
35129;BME280;21301;43.626;10.580;2024-03-08T06:47:25;101474.91;;;11.36;100.00
35129;BME280;21301;43.626;10.580;2024-03-08T06:49:51;101476.81;;;11.46;100.00
35129;BME280;21301;43.626;10.580;2024-03-08T06:52:18;101465.25;;;11.87;100.00
35129;BME280;21301;43.626;10.580;2024-03-08T06:54:44;101467.78;;;11.76;100.00
35129;BME280;21301;43.626;10.580;2024-03-08T06:57:12;101472.28;;;12.00;100.00
35129;BME280;21301;43.626;10.580;2024-03-08T06:59:56;101475.22;;;11.44;100.00
35129;BME280;21301;43.626;10.580;2024-03-08T07:02:30;101491.28;;;11.14;100.00
35129;BME280;21301;43.626;10.580;2024-03-08T07:04:59;101476.00;;;11.71;100.00
35129;BME280;21301;43.626;10.580;2024-03-08T07:07:24;101471.34;;;11.88;100.00
35129;BME280;21301;43.626;10.580;2024-03-08T07:09:52;101481.53;;;11.41;100.00
35129;BME280;21301;43.626;10.580;2024-03-08T07:12:19;101480.19;;;11.48;100.00
35129;BME280;21301;43.626;10.580;2024-03-08T07:14:51;101477.53;;;11.48;100.00
35129;BME280;21301;43.626;10.580;2024-03-08T07:17:16;101490.78;;;10.94;100.00
35129;BME280;21301;43.626;10.580;2024-03-08T07:20:18;101486.09;;;10.31;100.00
35129;BME280;21301;43.626;10.580;2024-03-08T07:22:45;101485.44;;;10.41;100.00
35129;BME280;21301;43.626;10.580;2024-03-08T07:25:17;101497.69;;;10.55;100.00
35129;BME280;21301;43.626;10.580;2024-03-08T07:27:56;101493.06;;;11.13;100.00
35129;BME280;21301;43.626;10.580;2024-03-08T07:30:24;101489.56;;;11.00;100.00
35129;BME280;21301;43.626;10.580;2024-03-08T07:33:10;101486.28;;;11.36;100.00
35129;BME280;21301;43.626;10.580;2024-03-08T07:35:39;101485.97;;;11.66;100.00
35129;BME280;21301;43.626;10.580;2024-03-08T07:38:09;101488.19;;;11.72;100.00
35129;BME280;21301;43.626;10.580;2024-03-08T07:41:06;101491.25;;;12.05;100.00
35129;BME280;21301;43.626;10.580;2024-03-08T07:43:34;101493.41;;;12.73;100.00
35129;BME280;21301;43.626;10.580;2024-03-08T07:46:00;101489.28;;;13.17;100.00
35129;BME280;21301;43.626;10.580;2024-03-08T07:48:26;101501.25;;;12.75;100.00
35129;BME280;21301;43.626;10.580;2024-03-08T07:50:52;101489.59;;;12.53;100.00
35129;BME280;21301;43.626;10.580;2024-03-08T07:53:18;101494.63;;;12.20;100.00
35129;BME280;21301;43.626;10.580;2024-03-08T07:55:44;101494.13;;;11.76;100.00
35129;BME280;21301;43.626;10.580;2024-03-08T07:58:10;101492.44;;;11.88;100.00
35129;BME280;21301;43.626;10.580;2024-03-08T08:00:37;101495.25;;;11.85;100.00
35129;BME280;21301;43.626;10.580;2024-03-08T08:03:04;101486.00;;;12.18;100.00
35129;BME280;21301;43.626;10.580;2024-03-08T08:05:30;101476.19;;;12.81;100.00
35129;BME280;21301;43.626;10.580;2024-03-08T08:08:03;101490.72;;;12.25;100.00
35129;BME280;21301;43.626;10.580;2024-03-08T08:10:34;101492.75;;;12.09;100.00
35129;BME280;21301;43.626;10.580;2024-03-08T08:13:27;101494.97;;;12.15;100.00
35129;BME280;21301;43.626;10.580;2024-03-08T08:15:58;101486.06;;;13.14;100.00
35129;BME280;21301;43.626;10.580;2024-03-08T08:18:29;101478.41;;;14.36;100.00
35129;BME280;21301;43.626;10.580;2024-03-08T08:21:00;101491.66;;;13.91;100.00
35129;BME280;21301;43.626;10.580;2024-03-08T08:23:34;101489.28;;;13.41;100.00
35129;BME280;21301;43.626;10.580;2024-03-08T08:26:01;101488.03;;;12.99;100.00
35129;BME280;21301;43.626;10.580;2024-03-08T08:28:30;101494.56;;;13.17;100.00
35129;BME280;21301;43.626;10.580;2024-03-08T08:30:56;101491.63;;;12.98;100.00
35129;BME280;21301;43.626;10.580;2024-03-08T08:33:28;101496.31;;;13.06;100.00
35129;BME280;21301;43.626;10.580;2024-03-08T08:35:54;101484.25;;;13.14;100.00
35129;BME280;21301;43.626;10.580;2024-03-08T08:38:21;101482.28;;;13.05;100.00
35129;BME280;21301;43.626;10.580;2024-03-08T08:40:47;101486.53;;;13.43;100.00
35129;BME280;21301;43.626;10.580;2024-03-08T08:43:13;101486.22;;;13.59;100.00
35129;BME280;21301;43.626;10.580;2024-03-08T08:45:40;101489.69;;;13.71;100.00
35129;BME280;21301;43.626;10.580;2024-03-08T08:48:06;101486.47;;;14.01;100.00
35129;BME280;21301;43.626;10.580;2024-03-08T08:50:32;101482.03;;;14.01;100.00
35129;BME280;21301;43.626;10.580;2024-03-08T08:52:58;101481.75;;;14.49;100.00
35129;BME280;21301;43.626;10.580;2024-03-08T08:55:27;101481.28;;;14.33;100.00
35129;BME280;21301;43.626;10.580;2024-03-08T08:57:54;101482.66;;;14.05;100.00
35129;BME280;21301;43.626;10.580;2024-03-08T09:00:22;101471.28;;;14.59;100.00
35129;BME280;21301;43.626;10.580;2024-03-08T09:02:52;101470.81;;;15.19;100.00
35129;BME280;21301;43.626;10.580;2024-03-08T09:05:20;101473.56;;;14.64;100.00
35129;BME280;21301;43.626;10.580;2024-03-08T09:07:47;101477.44;;;14.37;100.00
35129;BME280;21301;43.626;10.580;2024-03-08T09:10:13;101475.88;;;14.23;100.00
35129;BME280;21301;43.626;10.580;2024-03-08T09:12:40;101479.72;;;14.42;100.00
35129;BME280;21301;43.626;10.580;2024-03-08T09:15:07;101475.31;;;15.07;100.00
35129;BME280;21301;43.626;10.580;2024-03-08T09:17:40;101474.69;;;15.57;100.00
35129;BME280;21301;43.626;10.580;2024-03-08T09:20:15;101475.34;;;15.28;100.00
35129;BME280;21301;43.626;10.580;2024-03-08T09:22:45;101473.41;;;15.30;100.00
35129;BME280;21301;43.626;10.580;2024-03-08T09:25:11;101464.38;;;15.32;100.00
35129;BME280;21301;43.626;10.580;2024-03-08T09:27:37;101465.69;;;15.69;100.00
35129;BME280;21301;43.626;10.580;2024-03-08T09:30:05;101472.25;;;15.23;100.00
35129;BME280;21301;43.626;10.580;2024-03-08T09:32:32;101464.31;;;15.23;100.00
35129;BME280;21301;43.626;10.580;2024-03-08T09:34:59;101462.59;;;15.22;100.00
35129;BME280;21301;43.626;10.580;2024-03-08T09:37:27;101458.00;;;15.03;100.00
35129;BME280;21301;43.626;10.580;2024-03-08T09:39:53;101459.13;;;14.57;100.00
35129;BME280;21301;43.626;10.580;2024-03-08T09:42:21;101462.09;;;14.75;100.00
35129;BME280;21301;43.626;10.580;2024-03-08T09:44:47;101459.84;;;15.23;100.00
35129;BME280;21301;43.626;10.580;2024-03-08T09:47:14;101455.88;;;15.60;100.00
35129;BME280;21301;43.626;10.580;2024-03-08T09:49:41;101452.25;;;15.82;100.00
35129;BME280;21301;43.626;10.580;2024-03-08T09:52:08;101445.28;;;15.81;100.00
35129;BME280;21301;43.626;10.580;2024-03-08T09:54:34;101449.44;;;16.14;100.00
35129;BME280;21301;43.626;10.580;2024-03-08T09:57:00;101448.09;;;16.39;100.00
35129;BME280;21301;43.626;10.580;2024-03-08T09:59:30;101442.56;;;16.91;100.00
35129;BME280;21301;43.626;10.580;2024-03-08T10:02:14;101436.41;;;16.71;100.00
35129;BME280;21301;43.626;10.580;2024-03-08T10:04:42;101444.81;;;16.86;100.00
35129;BME280;21301;43.626;10.580;2024-03-08T10:07:09;101439.09;;;16.80;100.00
35129;BME280;21301;43.626;10.580;2024-03-08T10:09:35;101444.78;;;17.34;100.00
35129;BME280;21301;43.626;10.580;2024-03-08T10:12:29;101435.69;;;16.69;100.00
35129;BME280;21301;43.626;10.580;2024-03-08T10:15:00;101438.25;;;16.80;100.00
35129;BME280;21301;43.626;10.580;2024-03-08T10:17:27;101434.59;;;17.30;100.00
35129;BME280;21301;43.626;10.580;2024-03-08T10:19:58;101443.75;;;17.55;100.00
35129;BME280;21301;43.626;10.580;2024-03-08T10:22:26;101449.19;;;17.53;100.00
35129;BME280;21301;43.626;10.580;2024-03-08T10:24:52;101446.91;;;17.21;100.00
35129;BME280;21301;43.626;10.580;2024-03-08T10:27:18;101435.75;;;18.02;100.00
35129;BME280;21301;43.626;10.580;2024-03-08T10:29:48;101446.91;;;17.78;100.00
35129;BME280;21301;43.626;10.580;2024-03-08T10:32:20;101442.25;;;18.17;100.00
35129;BME280;21301;43.626;10.580;2024-03-08T10:34:46;101444.22;;;18.61;100.00
35129;BME280;21301;43.626;10.580;2024-03-08T10:37:15;101439.06;;;18.14;100.00
35129;BME280;21301;43.626;10.580;2024-03-08T10:42:29;101430.38;;;19.37;100.00
35129;BME280;21301;43.626;10.580;2024-03-08T10:45:05;101432.72;;;19.14;100.00
35129;BME280;21301;43.626;10.580;2024-03-08T10:47:41;101435.31;;;19.06;100.00
35129;BME280;21301;43.626;10.580;2024-03-08T10:52:38;101424.75;;;18.78;100.00
35129;BME280;21301;43.626;10.580;2024-03-08T10:55:07;101428.31;;;19.05;100.00
35129;BME280;21301;43.626;10.580;2024-03-08T10:57:40;101426.13;;;19.00;100.00
35129;BME280;21301;43.626;10.580;2024-03-08T11:00:08;101421.22;;;18.24;100.00
35129;BME280;21301;43.626;10.580;2024-03-08T11:02:38;101422.47;;;18.02;100.00
35129;BME280;21301;43.626;10.580;2024-03-08T11:05:04;101426.78;;;16.99;100.00
35129;BME280;21301;43.626;10.580;2024-03-08T11:07:34;101429.03;;;16.84;100.00
35129;BME280;21301;43.626;10.580;2024-03-08T11:10:04;101411.94;;;16.48;100.00
35129;BME280;21301;43.626;10.580;2024-03-08T11:12:39;101411.53;;;16.72;100.00
35129;BME280;21301;43.626;10.580;2024-03-08T11:15:14;101402.88;;;16.50;100.00
35129;BME280;21301;43.626;10.580;2024-03-08T11:17:48;101405.22;;;16.34;100.00
35129;BME280;21301;43.626;10.580;2024-03-08T11:20:19;101394.91;;;16.70;100.00
35129;BME280;21301;43.626;10.580;2024-03-08T11:22:52;101385.41;;;16.87;100.00
35129;BME280;21301;43.626;10.580;2024-03-08T11:25:41;101374.91;;;16.85;100.00
35129;BME280;21301;43.626;10.580;2024-03-08T11:28:19;101377.16;;;16.60;100.00
35129;BME280;21301;43.626;10.580;2024-03-08T11:33:32;101365.28;;;16.65;100.00
35129;BME280;21301;43.626;10.580;2024-03-08T11:36:13;101359.56;;;16.89;100.00
35129;BME280;21301;43.626;10.580;2024-03-08T11:38:48;101360.09;;;16.82;100.00
35129;BME280;21301;43.626;10.580;2024-03-08T11:41:20;101348.22;;;16.48;100.00
35129;BME280;21301;43.626;10.580;2024-03-08T11:43:47;101352.13;;;16.53;100.00
35129;BME280;21301;43.626;10.580;2024-03-08T11:46:16;101338.31;;;16.79;100.00
35129;BME280;21301;43.626;10.580;2024-03-08T11:48:43;101343.34;;;16.24;100.00
35129;BME280;21301;43.626;10.580;2024-03-08T11:51:15;101340.72;;;15.73;100.00
35129;BME280;21301;43.626;10.580;2024-03-08T11:53:45;101333.47;;;15.75;100.00
35129;BME280;21301;43.626;10.580;2024-03-08T11:56:30;101327.59;;;15.82;100.00
35129;BME280;21301;43.626;10.580;2024-03-08T11:59:11;101324.94;;;15.72;100.00
35129;BME280;21301;43.626;10.580;2024-03-08T12:02:06;101328.09;;;15.25;100.00
35129;BME280;21301;43.626;10.580;2024-03-08T12:04:34;101321.78;;;15.57;100.00
35129;BME280;21301;43.626;10.580;2024-03-08T12:07:02;101306.97;;;15.85;100.00
35129;BME280;21301;43.626;10.580;2024-03-08T12:10:20;101305.91;;;15.67;100.00
35129;BME280;21301;43.626;10.580;2024-03-08T12:12:57;101308.66;;;15.96;100.00
35129;BME280;21301;43.626;10.580;2024-03-08T12:15:29;101295.63;;;15.73;100.00
35129;BME280;21301;43.626;10.580;2024-03-08T12:17:58;101297.59;;;15.81;100.00
35129;BME280;21301;43.626;10.580;2024-03-08T12:20:28;101294.59;;;15.65;100.00
35129;BME280;21301;43.626;10.580;2024-03-08T12:22:58;101296.34;;;15.75;100.00
35129;BME280;21301;43.626;10.580;2024-03-08T12:25:32;101280.34;;;15.56;100.00
35129;BME280;21301;43.626;10.580;2024-03-08T12:28:10;101284.13;;;15.63;100.00
35129;BME280;21301;43.626;10.580;2024-03-08T12:30:51;101266.69;;;15.61;100.00
35129;BME280;21301;43.626;10.580;2024-03-08T12:33:22;101265.06;;;15.79;100.00
35129;BME280;21301;43.626;10.580;2024-03-08T12:35:55;101256.13;;;15.80;100.00
35129;BME280;21301;43.626;10.580;2024-03-08T12:38:22;101245.81;;;15.87;100.00
35129;BME280;21301;43.626;10.580;2024-03-08T12:40:50;101247.34;;;15.89;100.00
35129;BME280;21301;43.626;10.580;2024-03-08T12:43:20;101240.25;;;16.00;100.00
35129;BME280;21301;43.626;10.580;2024-03-08T12:45:46;101227.13;;;15.88;100.00
35129;BME280;21301;43.626;10.580;2024-03-08T12:48:14;101227.19;;;15.58;100.00
35129;BME280;21301;43.626;10.580;2024-03-08T12:50:41;101215.31;;;15.42;100.00
35129;BME280;21301;43.626;10.580;2024-03-08T12:53:13;101212.94;;;15.49;100.00